sensor_id;sensor_type;location;lat;lon;timestamp;P1;durP1;ratioP1;P2;durP2;ratioP2
75645;SDS011;64237;52.438;13.240;2023-05-08T00:00:29;5.47;;;2.65;;
75645;SDS011;64237;52.438;13.240;2023-05-08T00:02:54;5.95;;;3.08;;
75645;SDS011;64237;52.438;13.240;2023-05-08T00:05:19;6.07;;;2.92;;
75645;SDS011;64237;52.438;13.240;2023-05-08T00:07:45;6.15;;;2.40;;
75645;SDS011;64237;52.438;13.240;2023-05-08T00:10:13;6.65;;;2.65;;
75645;SDS011;64237;52.438;13.240;2023-05-08T00:12:38;6.07;;;2.90;;
75645;SDS011;64237;52.438;13.240;2023-05-08T00:15:04;5.22;;;2.53;;
75645;SDS011;64237;52.438;13.240;2023-05-08T00:17:30;4.60;;;2.38;;
75645;SDS011;64237;52.438;13.240;2023-05-08T00:19:56;6.07;;;3.05;;
75645;SDS011;64237;52.438;13.240;2023-05-08T00:22:21;7.70;;;2.97;;
75645;SDS011;64237;52.438;13.240;2023-05-08T00:24:46;5.75;;;2.58;;
75645;SDS011;64237;52.438;13.240;2023-05-08T00:27:12;6.45;;;3.10;;
75645;SDS011;64237;52.438;13.240;2023-05-08T00:29:40;6.05;;;2.75;;
75645;SDS011;64237;52.438;13.240;2023-05-08T00:32:09;6.65;;;2.88;;
75645;SDS011;64237;52.438;13.240;2023-05-08T00:34:34;6.13;;;2.63;;
75645;SDS011;64237;52.438;13.240;2023-05-08T00:37:03;6.38;;;3.00;;
75645;SDS011;64237;52.438;13.240;2023-05-08T00:39:28;5.50;;;2.55;;
75645;SDS011;64237;52.438;13.240;2023-05-08T00:41:56;5.85;;;2.47;;
75645;SDS011;64237;52.438;13.240;2023-05-08T00:44:22;5.82;;;2.50;;
75645;SDS011;64237;52.438;13.240;2023-05-08T00:46:50;6.33;;;2.50;;
75645;SDS011;64237;52.438;13.240;2023-05-08T00:49:25;7.22;;;3.00;;
75645;SDS011;64237;52.438;13.240;2023-05-08T00:51:54;6.35;;;2.83;;
75645;SDS011;64237;52.438;13.240;2023-05-08T00:54:36;5.38;;;2.78;;
75645;SDS011;64237;52.438;13.240;2023-05-08T00:57:05;6.18;;;2.60;;
75645;SDS011;64237;52.438;13.240;2023-05-08T00:59:37;6.32;;;2.80;;
75645;SDS011;64237;52.438;13.240;2023-05-08T01:02:08;5.10;;;2.60;;
75645;SDS011;64237;52.438;13.240;2023-05-08T01:04:34;6.28;;;2.80;;
75645;SDS011;64237;52.438;13.240;2023-05-08T01:07:01;5.95;;;2.80;;
75645;SDS011;64237;52.438;13.240;2023-05-08T01:09:27;6.05;;;2.55;;
75645;SDS011;64237;52.438;13.240;2023-05-08T01:12:04;6.72;;;2.63;;
75645;SDS011;64237;52.438;13.240;2023-05-08T01:32:23;7.25;;;2.95;;
75645;SDS011;64237;52.438;13.240;2023-05-08T01:37:26;5.60;;;2.90;;
75645;SDS011;64237;52.438;13.240;2023-05-08T01:42:45;6.70;;;3.00;;
75645;SDS011;64237;52.438;13.240;2023-05-08T01:45:33;6.63;;;3.20;;
75645;SDS011;64237;52.438;13.240;2023-05-08T01:48:23;6.85;;;3.17;;
75645;SDS011;64237;52.438;13.240;2023-05-08T01:51:04;6.00;;;2.85;;
75645;SDS011;64237;52.438;13.240;2023-05-08T01:53:33;5.80;;;2.85;;
75645;SDS011;64237;52.438;13.240;2023-05-08T01:56:15;6.68;;;3.10;;
75645;SDS011;64237;52.438;13.240;2023-05-08T01:58:52;6.55;;;3.03;;
75645;SDS011;64237;52.438;13.240;2023-05-08T02:01:21;7.10;;;3.35;;
75645;SDS011;64237;52.438;13.240;2023-05-08T02:03:48;7.90;;;3.50;;
75645;SDS011;64237;52.438;13.240;2023-05-08T02:06:18;8.05;;;3.53;;
75645;SDS011;64237;52.438;13.240;2023-05-08T02:08:46;6.57;;;3.08;;
75645;SDS011;64237;52.438;13.240;2023-05-08T02:11:18;6.10;;;3.22;;
75645;SDS011;64237;52.438;13.240;2023-05-08T02:13:44;7.72;;;3.30;;
75645;SDS011;64237;52.438;13.240;2023-05-08T02:16:12;6.32;;;3.10;;
75645;SDS011;64237;52.438;13.240;2023-05-08T02:18:38;7.95;;;3.47;;
75645;SDS011;64237;52.438;13.240;2023-05-08T02:21:08;7.25;;;3.25;;
75645;SDS011;64237;52.438;13.240;2023-05-08T02:23:48;8.63;;;3.25;;
75645;SDS011;64237;52.438;13.240;2023-05-08T02:26:16;7.63;;;3.38;;
75645;SDS011;64237;52.438;13.240;2023-05-08T02:28:42;5.63;;;2.97;;
75645;SDS011;64237;52.438;13.240;2023-05-08T02:31:09;7.15;;;3.08;;
75645;SDS011;64237;52.438;13.240;2023-05-08T02:33:48;6.60;;;3.30;;
75645;SDS011;64237;52.438;13.240;2023-05-08T02:36:16;6.97;;;3.40;;
75645;SDS011;64237;52.438;13.240;2023-05-08T02:38:46;6.70;;;3.50;;
75645;SDS011;64237;52.438;13.240;2023-05-08T02:41:26;7.22;;;3.50;;
75645;SDS011;64237;52.438;13.240;2023-05-08T02:43:54;7.85;;;3.25;;
75645;SDS011;64237;52.438;13.240;2023-05-08T02:46:25;8.15;;;3.45;;
75645;SDS011;64237;52.438;13.240;2023-05-08T02:49:19;6.88;;;3.53;;
75645;SDS011;64237;52.438;13.240;2023-05-08T02:51:56;6.57;;;3.40;;
75645;SDS011;64237;52.438;13.240;2023-05-08T02:57:17;7.68;;;3.75;;
75645;SDS011;64237;52.438;13.240;2023-05-08T02:59:55;7.15;;;3.75;;
75645;SDS011;64237;52.438;13.240;2023-05-08T03:02:27;7.78;;;3.78;;
75645;SDS011;64237;52.438;13.240;2023-05-08T03:05:04;7.35;;;3.53;;
75645;SDS011;64237;52.438;13.240;2023-05-08T03:07:38;10.73;;;4.00;;
75645;SDS011;64237;52.438;13.240;2023-05-08T03:10:06;8.00;;;3.83;;
75645;SDS011;64237;52.438;13.240;2023-05-08T03:12:38;7.70;;;3.30;;
75645;SDS011;64237;52.438;13.240;2023-05-08T03:15:14;7.18;;;3.38;;
75645;SDS011;64237;52.438;13.240;2023-05-08T03:17:48;10.07;;;3.65;;
75645;SDS011;64237;52.438;13.240;2023-05-08T03:20:21;8.88;;;3.85;;
75645;SDS011;64237;52.438;13.240;2023-05-08T03:22:50;7.25;;;3.08;;
75645;SDS011;64237;52.438;13.240;2023-05-08T03:27:45;7.38;;;3.30;;
75645;SDS011;64237;52.438;13.240;2023-05-08T03:30:15;8.63;;;3.58;;
75645;SDS011;64237;52.438;13.240;2023-05-08T03:32:45;7.45;;;3.55;;
75645;SDS011;64237;52.438;13.240;2023-05-08T03:35:14;12.75;;;4.13;;
75645;SDS011;64237;52.438;13.240;2023-05-08T03:37:41;8.52;;;3.50;;
75645;SDS011;64237;52.438;13.240;2023-05-08T03:40:07;8.95;;;3.95;;
75645;SDS011;64237;52.438;13.240;2023-05-08T03:42:33;7.53;;;3.65;;
75645;SDS011;64237;52.438;13.240;2023-05-08T03:45:00;7.72;;;3.53;;
75645;SDS011;64237;52.438;13.240;2023-05-08T03:47:27;8.13;;;3.58;;
75645;SDS011;64237;52.438;13.240;2023-05-08T03:49:53;7.53;;;3.70;;
75645;SDS011;64237;52.438;13.240;2023-05-08T03:52:18;7.93;;;3.90;;
75645;SDS011;64237;52.438;13.240;2023-05-08T03:54:43;6.55;;;3.47;;
75645;SDS011;64237;52.438;13.240;2023-05-08T03:57:09;8.32;;;3.63;;
75645;SDS011;64237;52.438;13.240;2023-05-08T03:59:37;9.98;;;3.80;;
75645;SDS011;64237;52.438;13.240;2023-05-08T04:05:01;10.45;;;4.43;;
75645;SDS011;64237;52.438;13.240;2023-05-08T04:07:36;10.43;;;4.03;;
75645;SDS011;64237;52.438;13.240;2023-05-08T04:10:20;8.55;;;3.78;;
75645;SDS011;64237;52.438;13.240;2023-05-08T04:12:56;7.80;;;3.78;;
75645;SDS011;64237;52.438;13.240;2023-05-08T04:15:46;8.52;;;3.83;;
75645;SDS011;64237;52.438;13.240;2023-05-08T04:18:15;7.60;;;3.70;;
75645;SDS011;64237;52.438;13.240;2023-05-08T04:20:42;8.68;;;3.85;;
75645;SDS011;64237;52.438;13.240;2023-05-08T04:23:12;8.75;;;3.85;;
75645;SDS011;64237;52.438;13.240;2023-05-08T04:25:39;8.80;;;3.95;;
75645;SDS011;64237;52.438;13.240;2023-05-08T04:28:07;9.15;;;3.58;;
75645;SDS011;64237;52.438;13.240;2023-05-08T04:30:33;9.50;;;3.78;;
75645;SDS011;64237;52.438;13.240;2023-05-08T04:32:59;11.38;;;4.10;;
75645;SDS011;64237;52.438;13.240;2023-05-08T04:35:27;7.53;;;3.63;;
75645;SDS011;64237;52.438;13.240;2023-05-08T04:37:53;8.77;;;3.25;;
75645;SDS011;64237;52.438;13.240;2023-05-08T04:40:19;6.75;;;3.28;;
75645;SDS011;64237;52.438;13.240;2023-05-08T04:42:46;8.50;;;3.50;;
75645;SDS011;64237;52.438;13.240;2023-05-08T04:45:11;7.45;;;3.30;;
75645;SDS011;64237;52.438;13.240;2023-05-08T04:47:37;8.40;;;4.10;;
75645;SDS011;64237;52.438;13.240;2023-05-08T04:50:02;7.35;;;3.33;;
75645;SDS011;64237;52.438;13.240;2023-05-08T04:52:29;7.63;;;3.35;;
75645;SDS011;64237;52.438;13.240;2023-05-08T04:54:55;7.45;;;3.20;;
75645;SDS011;64237;52.438;13.240;2023-05-08T04:57:23;6.82;;;3.08;;
75645;SDS011;64237;52.438;13.240;2023-05-08T04:59:50;7.32;;;3.40;;
75645;SDS011;64237;52.438;13.240;2023-05-08T05:02:15;7.72;;;3.33;;
75645;SDS011;64237;52.438;13.240;2023-05-08T05:04:40;7.05;;;2.65;;
75645;SDS011;64237;52.438;13.240;2023-05-08T05:07:06;6.80;;;2.95;;
75645;SDS011;64237;52.438;13.240;2023-05-08T05:09:31;7.40;;;3.10;;
75645;SDS011;64237;52.438;13.240;2023-05-08T05:12:04;6.05;;;3.03;;
75645;SDS011;64237;52.438;13.240;2023-05-08T05:14:30;7.50;;;2.83;;
75645;SDS011;64237;52.438;13.240;2023-05-08T05:16:55;6.03;;;2.90;;
75645;SDS011;64237;52.438;13.240;2023-05-08T05:19:21;6.95;;;3.30;;
75645;SDS011;64237;52.438;13.240;2023-05-08T05:21:46;7.97;;;2.88;;
75645;SDS011;64237;52.438;13.240;2023-05-08T05:24:11;7.80;;;2.90;;
75645;SDS011;64237;52.438;13.240;2023-05-08T05:26:37;9.20;;;2.92;;
75645;SDS011;64237;52.438;13.240;2023-05-08T05:29:02;7.68;;;3.53;;
75645;SDS011;64237;52.438;13.240;2023-05-08T05:31:28;7.93;;;3.13;;
75645;SDS011;64237;52.438;13.240;2023-05-08T05:33:54;6.22;;;2.83;;
75645;SDS011;64237;52.438;13.240;2023-05-08T05:36:20;7.55;;;2.78;;
75645;SDS011;64237;52.438;13.240;2023-05-08T05:38:45;6.75;;;2.97;;
75645;SDS011;64237;52.438;13.240;2023-05-08T05:41:10;6.97;;;3.05;;
75645;SDS011;64237;52.438;13.240;2023-05-08T05:43:36;7.07;;;2.80;;
75645;SDS011;64237;52.438;13.240;2023-05-08T05:46:04;5.88;;;2.83;;
75645;SDS011;64237;52.438;13.240;2023-05-08T05:48:31;10.02;;;3.13;;
75645;SDS011;64237;52.438;13.240;2023-05-08T05:50:56;6.80;;;3.08;;
75645;SDS011;64237;52.438;13.240;2023-05-08T05:53:22;6.13;;;3.03;;
75645;SDS011;64237;52.438;13.240;2023-05-08T05:55:48;6.07;;;2.70;;
75645;SDS011;64237;52.438;13.240;2023-05-08T05:58:13;10.93;;;3.60;;
75645;SDS011;64237;52.438;13.240;2023-05-08T06:00:39;7.75;;;3.10;;
75645;SDS011;64237;52.438;13.240;2023-05-08T06:03:05;8.07;;;3.10;;
75645;SDS011;64237;52.438;13.240;2023-05-08T06:05:30;7.43;;;2.83;;
75645;SDS011;64237;52.438;13.240;2023-05-08T06:07:56;6.82;;;2.53;;
75645;SDS011;64237;52.438;13.240;2023-05-08T06:10:22;6.30;;;2.40;;
75645;SDS011;64237;52.438;13.240;2023-05-08T06:12:47;7.75;;;2.63;;
75645;SDS011;64237;52.438;13.240;2023-05-08T06:15:12;7.00;;;2.90;;
75645;SDS011;64237;52.438;13.240;2023-05-08T06:17:39;6.38;;;2.20;;
75645;SDS011;64237;52.438;13.240;2023-05-08T06:20:05;6.40;;;2.35;;
75645;SDS011;64237;52.438;13.240;2023-05-08T06:22:31;5.03;;;2.40;;
75645;SDS011;64237;52.438;13.240;2023-05-08T06:25:01;4.80;;;1.98;;
75645;SDS011;64237;52.438;13.240;2023-05-08T06:27:27;6.22;;;2.20;;
75645;SDS011;64237;52.438;13.240;2023-05-08T06:29:52;6.78;;;2.60;;
75645;SDS011;64237;52.438;13.240;2023-05-08T06:32:18;6.25;;;2.35;;
75645;SDS011;64237;52.438;13.240;2023-05-08T06:34:44;5.22;;;2.10;;
75645;SDS011;64237;52.438;13.240;2023-05-08T06:37:09;5.20;;;2.03;;
75645;SDS011;64237;52.438;13.240;2023-05-08T06:39:35;5.78;;;1.98;;
75645;SDS011;64237;52.438;13.240;2023-05-08T06:42:00;4.20;;;1.88;;
75645;SDS011;64237;52.438;13.240;2023-05-08T06:44:26;5.55;;;2.10;;
75645;SDS011;64237;52.438;13.240;2023-05-08T06:46:51;3.95;;;1.83;;
75645;SDS011;64237;52.438;13.240;2023-05-08T06:49:17;6.55;;;2.33;;
75645;SDS011;64237;52.438;13.240;2023-05-08T06:51:43;4.72;;;2.00;;
75645;SDS011;64237;52.438;13.240;2023-05-08T06:54:09;4.18;;;1.98;;
75645;SDS011;64237;52.438;13.240;2023-05-08T06:56:34;4.10;;;1.77;;
75645;SDS011;64237;52.438;13.240;2023-05-08T06:58:59;3.80;;;1.88;;
75645;SDS011;64237;52.438;13.240;2023-05-08T07:01:25;6.85;;;1.95;;
75645;SDS011;64237;52.438;13.240;2023-05-08T07:03:50;4.03;;;1.60;;
75645;SDS011;64237;52.438;13.240;2023-05-08T07:06:16;6.00;;;2.00;;
75645;SDS011;64237;52.438;13.240;2023-05-08T07:08:41;5.10;;;2.30;;
75645;SDS011;64237;52.438;13.240;2023-05-08T07:11:07;4.80;;;1.70;;
75645;SDS011;64237;52.438;13.240;2023-05-08T07:13:34;4.05;;;1.70;;
75645;SDS011;64237;52.438;13.240;2023-05-08T07:16:00;4.13;;;1.95;;
75645;SDS011;64237;52.438;13.240;2023-05-08T07:18:25;5.00;;;1.88;;
75645;SDS011;64237;52.438;13.240;2023-05-08T07:20:50;5.72;;;1.92;;
75645;SDS011;64237;52.438;13.240;2023-05-08T07:23:16;3.50;;;1.88;;
75645;SDS011;64237;52.438;13.240;2023-05-08T07:25:41;4.38;;;1.70;;
75645;SDS011;64237;52.438;13.240;2023-05-08T07:28:07;3.20;;;1.52;;
75645;SDS011;64237;52.438;13.240;2023-05-08T07:30:32;4.07;;;1.63;;
75645;SDS011;64237;52.438;13.240;2023-05-08T07:32:57;3.75;;;1.55;;
75645;SDS011;64237;52.438;13.240;2023-05-08T07:35:24;3.47;;;1.42;;
75645;SDS011;64237;52.438;13.240;2023-05-08T07:37:49;5.80;;;1.80;;
75645;SDS011;64237;52.438;13.240;2023-05-08T07:40:15;3.70;;;1.55;;
75645;SDS011;64237;52.438;13.240;2023-05-08T07:42:40;6.00;;;1.90;;
75645;SDS011;64237;52.438;13.240;2023-05-08T07:45:09;4.43;;;1.70;;
75645;SDS011;64237;52.438;13.240;2023-05-08T07:47:36;3.05;;;1.33;;
75645;SDS011;64237;52.438;13.240;2023-05-08T07:50:01;8.07;;;1.70;;
75645;SDS011;64237;52.438;13.240;2023-05-08T07:52:27;4.53;;;1.45;;
75645;SDS011;64237;52.438;13.240;2023-05-08T07:54:52;4.32;;;1.60;;
75645;SDS011;64237;52.438;13.240;2023-05-08T07:57:18;3.50;;;1.60;;
75645;SDS011;64237;52.438;13.240;2023-05-08T07:59:46;2.47;;;1.30;;
75645;SDS011;64237;52.438;13.240;2023-05-08T08:02:11;4.60;;;1.60;;
75645;SDS011;64237;52.438;13.240;2023-05-08T08:04:37;2.47;;;1.40;;
75645;SDS011;64237;52.438;13.240;2023-05-08T08:07:02;2.53;;;1.50;;
75645;SDS011;64237;52.438;13.240;2023-05-08T08:09:30;2.43;;;1.30;;
75645;SDS011;64237;52.438;13.240;2023-05-08T08:11:56;3.95;;;1.70;;
75645;SDS011;64237;52.438;13.240;2023-05-08T08:14:22;4.07;;;1.40;;
75645;SDS011;64237;52.438;13.240;2023-05-08T08:16:47;2.72;;;1.13;;
75645;SDS011;64237;52.438;13.240;2023-05-08T08:19:12;4.05;;;1.33;;
75645;SDS011;64237;52.438;13.240;2023-05-08T08:21:41;4.33;;;1.90;;
75645;SDS011;64237;52.438;13.240;2023-05-08T08:24:07;3.33;;;1.50;;
75645;SDS011;64237;52.438;13.240;2023-05-08T08:26:33;3.22;;;1.40;;
75645;SDS011;64237;52.438;13.240;2023-05-08T08:28:58;4.55;;;1.65;;
75645;SDS011;64237;52.438;13.240;2023-05-08T08:31:23;4.20;;;1.70;;
75645;SDS011;64237;52.438;13.240;2023-05-08T08:33:49;4.17;;;1.40;;
75645;SDS011;64237;52.438;13.240;2023-05-08T08:36:14;5.87;;;1.40;;
75645;SDS011;64237;52.438;13.240;2023-05-08T08:38:40;2.40;;;1.42;;
75645;SDS011;64237;52.438;13.240;2023-05-08T08:41:05;2.75;;;1.40;;
75645;SDS011;64237;52.438;13.240;2023-05-08T08:43:34;5.22;;;1.65;;
75645;SDS011;64237;52.438;13.240;2023-05-08T08:46:01;6.47;;;1.60;;
75645;SDS011;64237;52.438;13.240;2023-05-08T08:48:43;5.32;;;1.42;;
75645;SDS011;64237;52.438;13.240;2023-05-08T08:51:11;3.42;;;1.50;;
75645;SDS011;64237;52.438;13.240;2023-05-08T08:53:42;3.58;;;1.52;;
75645;SDS011;64237;52.438;13.240;2023-05-08T08:59:09;2.35;;;1.33;;
75645;SDS011;64237;52.438;13.240;2023-05-08T09:01:29;3.75;;;1.42;;
75645;SDS011;64237;52.438;13.240;2023-05-08T09:03:57;3.28;;;1.52;;
75645;SDS011;64237;52.438;13.240;2023-05-08T09:06:23;4.32;;;1.60;;
75645;SDS011;64237;52.438;13.240;2023-05-08T09:08:49;7.53;;;1.73;;
75645;SDS011;64237;52.438;13.240;2023-05-08T09:11:18;4.18;;;1.55;;
75645;SDS011;64237;52.438;13.240;2023-05-08T09:13:43;2.47;;;1.20;;
75645;SDS011;64237;52.438;13.240;2023-05-08T09:16:08;5.63;;;1.73;;
75645;SDS011;64237;52.438;13.240;2023-05-08T09:18:35;5.40;;;1.40;;
75645;SDS011;64237;52.438;13.240;2023-05-08T09:21:00;6.47;;;1.58;;
75645;SDS011;64237;52.438;13.240;2023-05-08T09:23:26;3.70;;;1.75;;
75645;SDS011;64237;52.438;13.240;2023-05-08T09:25:51;3.40;;;1.58;;
75645;SDS011;64237;52.438;13.240;2023-05-08T09:28:21;2.67;;;1.33;;
75645;SDS011;64237;52.438;13.240;2023-05-08T09:30:55;3.55;;;1.42;;
75645;SDS011;64237;52.438;13.240;2023-05-08T09:33:23;2.75;;;1.60;;
75645;SDS011;64237;52.438;13.240;2023-05-08T09:35:49;4.35;;;1.50;;
75645;SDS011;64237;52.438;13.240;2023-05-08T09:41:12;3.08;;;1.40;;
75645;SDS011;64237;52.438;13.240;2023-05-08T09:43:39;3.05;;;1.40;;
75645;SDS011;64237;52.438;13.240;2023-05-08T09:46:18;2.50;;;1.30;;
75645;SDS011;64237;52.438;13.240;2023-05-08T09:48:46;5.15;;;1.50;;
75645;SDS011;64237;52.438;13.240;2023-05-08T09:51:11;4.55;;;1.58;;
75645;SDS011;64237;52.438;13.240;2023-05-08T09:53:37;2.22;;;1.38;;
75645;SDS011;64237;52.438;13.240;2023-05-08T09:56:03;4.70;;;1.60;;
75645;SDS011;64237;52.438;13.240;2023-05-08T09:58:44;3.42;;;1.60;;
75645;SDS011;64237;52.438;13.240;2023-05-08T10:01:28;3.92;;;1.80;;
75645;SDS011;64237;52.438;13.240;2023-05-08T10:03:56;6.35;;;1.63;;
75645;SDS011;64237;52.438;13.240;2023-05-08T10:06:22;5.40;;;1.48;;
75645;SDS011;64237;52.438;13.240;2023-05-08T10:08:49;6.25;;;1.65;;
75645;SDS011;64237;52.438;13.240;2023-05-08T10:11:30;4.03;;;1.60;;
75645;SDS011;64237;52.438;13.240;2023-05-08T10:13:55;4.47;;;2.17;;
75645;SDS011;64237;52.438;13.240;2023-05-08T10:16:21;3.47;;;1.50;;
75645;SDS011;64237;52.438;13.240;2023-05-08T10:18:47;5.18;;;1.30;;
75645;SDS011;64237;52.438;13.240;2023-05-08T10:21:13;3.67;;;1.45;;
75645;SDS011;64237;52.438;13.240;2023-05-08T10:23:46;3.38;;;1.55;;
75645;SDS011;64237;52.438;13.240;2023-05-08T10:26:15;4.80;;;1.50;;
75645;SDS011;64237;52.438;13.240;2023-05-08T10:28:56;4.25;;;1.73;;
75645;SDS011;64237;52.438;13.240;2023-05-08T10:31:30;3.72;;;1.48;;
75645;SDS011;64237;52.438;13.240;2023-05-08T10:33:59;5.07;;;1.55;;
75645;SDS011;64237;52.438;13.240;2023-05-08T10:36:26;4.97;;;1.48;;
75645;SDS011;64237;52.438;13.240;2023-05-08T10:38:52;10.02;;;1.60;;
75645;SDS011;64237;52.438;13.240;2023-05-08T10:41:18;4.05;;;1.45;;
75645;SDS011;64237;52.438;13.240;2023-05-08T10:43:44;2.60;;;1.25;;
75645;SDS011;64237;52.438;13.240;2023-05-08T10:46:33;5.30;;;1.90;;
75645;SDS011;64237;52.438;13.240;2023-05-08T10:58:13;5.38;;;1.50;;
75645;SDS011;64237;52.438;13.240;2023-05-08T11:03:18;3.23;;;1.53;;
75645;SDS011;64237;52.438;13.240;2023-05-08T11:05:45;5.07;;;1.50;;
75645;SDS011;64237;52.438;13.240;2023-05-08T11:08:18;3.92;;;1.40;;
75645;SDS011;64237;52.438;13.240;2023-05-08T11:11:19;4.72;;;1.60;;
75645;SDS011;64237;52.438;13.240;2023-05-08T11:13:51;4.68;;;1.58;;
75645;SDS011;64237;52.438;13.240;2023-05-08T11:16:58;3.25;;;1.38;;
75645;SDS011;64237;52.438;13.240;2023-05-08T11:19:21;2.17;;;1.10;;
75645;SDS011;64237;52.438;13.240;2023-05-08T11:24:36;3.83;;;1.30;;
75645;SDS011;64237;52.438;13.240;2023-05-08T11:27:02;3.47;;;1.30;;
75645;SDS011;64237;52.438;13.240;2023-05-08T11:29:28;3.55;;;1.50;;
75645;SDS011;64237;52.438;13.240;2023-05-08T11:31:53;3.97;;;1.42;;
75645;SDS011;64237;52.438;13.240;2023-05-08T11:37:10;4.53;;;1.20;;
75645;SDS011;64237;52.438;13.240;2023-05-08T11:39:36;4.55;;;1.63;;
75645;SDS011;64237;52.438;13.240;2023-05-08T11:44:57;2.90;;;1.30;;
75645;SDS011;64237;52.438;13.240;2023-05-08T11:47:41;6.70;;;1.40;;
75645;SDS011;64237;52.438;13.240;2023-05-08T11:50:09;4.63;;;1.40;;
75645;SDS011;64237;52.438;13.240;2023-05-08T11:52:35;2.78;;;1.27;;
75645;SDS011;64237;52.438;13.240;2023-05-08T11:55:06;3.65;;;1.38;;
75645;SDS011;64237;52.438;13.240;2023-05-08T11:57:33;3.28;;;1.27;;
75645;SDS011;64237;52.438;13.240;2023-05-08T12:00:02;3.45;;;1.45;;
75645;SDS011;64237;52.438;13.240;2023-05-08T12:04:59;3.42;;;1.30;;
75645;SDS011;64237;52.438;13.240;2023-05-08T12:07:25;4.20;;;1.60;;
75645;SDS011;64237;52.438;13.240;2023-05-08T12:09:51;2.65;;;1.38;;
75645;SDS011;64237;52.438;13.240;2023-05-08T12:12:16;3.05;;;1.48;;
75645;SDS011;64237;52.438;13.240;2023-05-08T12:14:42;4.82;;;1.30;;
75645;SDS011;64237;52.438;13.240;2023-05-08T12:17:07;3.00;;;1.27;;
75645;SDS011;64237;52.438;13.240;2023-05-08T12:19:34;2.42;;;1.20;;
75645;SDS011;64237;52.438;13.240;2023-05-08T12:22:02;2.70;;;1.30;;
75645;SDS011;64237;52.438;13.240;2023-05-08T12:24:27;4.53;;;1.50;;
75645;SDS011;64237;52.438;13.240;2023-05-08T12:26:53;2.47;;;1.40;;
75645;SDS011;64237;52.438;13.240;2023-05-08T12:29:19;4.10;;;1.48;;
75645;SDS011;64237;52.438;13.240;2023-05-08T12:31:45;5.88;;;1.42;;
75645;SDS011;64237;52.438;13.240;2023-05-08T12:34:15;3.03;;;1.23;;
75645;SDS011;64237;52.438;13.240;2023-05-08T12:39:12;6.23;;;1.90;;
75645;SDS011;64237;52.438;13.240;2023-05-08T12:44:27;4.32;;;1.30;;
75645;SDS011;64237;52.438;13.240;2023-05-08T12:46:57;4.43;;;1.30;;
75645;SDS011;64237;52.438;13.240;2023-05-08T12:49:25;4.65;;;1.40;;
75645;SDS011;64237;52.438;13.240;2023-05-08T12:52:02;4.95;;;1.70;;
75645;SDS011;64237;52.438;13.240;2023-05-08T12:54:45;3.55;;;1.40;;
75645;SDS011;64237;52.438;13.240;2023-05-08T12:57:21;3.33;;;1.50;;
75645;SDS011;64237;52.438;13.240;2023-05-08T12:59:46;4.55;;;1.27;;
75645;SDS011;64237;52.438;13.240;2023-05-08T13:02:16;3.65;;;1.23;;
75645;SDS011;64237;52.438;13.240;2023-05-08T13:04:46;2.22;;;1.13;;
75645;SDS011;64237;52.438;13.240;2023-05-08T13:07:11;2.97;;;1.30;;
75645;SDS011;64237;52.438;13.240;2023-05-08T13:09:54;5.07;;;1.60;;
75645;SDS011;64237;52.438;13.240;2023-05-08T13:12:20;4.78;;;1.30;;
75645;SDS011;64237;52.438;13.240;2023-05-08T13:14:46;3.27;;;1.30;;
75645;SDS011;64237;52.438;13.240;2023-05-08T13:17:15;2.57;;;1.20;;
75645;SDS011;64237;52.438;13.240;2023-05-08T13:19:41;6.18;;;1.50;;
75645;SDS011;64237;52.438;13.240;2023-05-08T13:22:06;2.97;;;1.60;;
75645;SDS011;64237;52.438;13.240;2023-05-08T13:24:35;3.43;;;1.40;;
75645;SDS011;64237;52.438;13.240;2023-05-08T13:27:00;6.20;;;1.27;;
75645;SDS011;64237;52.438;13.240;2023-05-08T13:29:25;3.65;;;1.27;;
75645;SDS011;64237;52.438;13.240;2023-05-08T13:31:51;4.45;;;1.30;;
75645;SDS011;64237;52.438;13.240;2023-05-08T13:34:16;5.00;;;1.20;;
75645;SDS011;64237;52.438;13.240;2023-05-08T13:36:41;3.90;;;1.30;;
75645;SDS011;64237;52.438;13.240;2023-05-08T13:39:07;3.55;;;1.42;;
75645;SDS011;64237;52.438;13.240;2023-05-08T13:41:32;1.75;;;1.08;;
75645;SDS011;64237;52.438;13.240;2023-05-08T13:44:01;3.80;;;1.40;;
75645;SDS011;64237;52.438;13.240;2023-05-08T13:46:26;3.40;;;1.45;;
75645;SDS011;64237;52.438;13.240;2023-05-08T13:48:51;3.63;;;1.70;;
75645;SDS011;64237;52.438;13.240;2023-05-08T13:51:16;3.83;;;1.53;;
75645;SDS011;64237;52.438;13.240;2023-05-08T13:53:42;2.07;;;1.30;;
75645;SDS011;64237;52.438;13.240;2023-05-08T13:56:07;2.65;;;1.30;;
75645;SDS011;64237;52.438;13.240;2023-05-08T13:58:32;3.47;;;1.40;;
75645;SDS011;64237;52.438;13.240;2023-05-08T14:00:58;4.07;;;1.47;;
75645;SDS011;64237;52.438;13.240;2023-05-08T14:03:23;3.80;;;1.30;;
75645;SDS011;64237;52.438;13.240;2023-05-08T14:05:48;3.30;;;1.30;;
75645;SDS011;64237;52.438;13.240;2023-05-08T14:08:14;3.70;;;1.30;;
75645;SDS011;64237;52.438;13.240;2023-05-08T14:10:39;2.83;;;1.20;;
75645;SDS011;64237;52.438;13.240;2023-05-08T14:13:04;3.35;;;1.30;;
75645;SDS011;64237;52.438;13.240;2023-05-08T14:15:30;2.50;;;1.17;;
75645;SDS011;64237;52.438;13.240;2023-05-08T14:17:55;4.05;;;1.40;;
75645;SDS011;64237;52.438;13.240;2023-05-08T14:20:20;3.65;;;1.45;;
75645;SDS011;64237;52.438;13.240;2023-05-08T14:22:46;2.35;;;1.35;;
75645;SDS011;64237;52.438;13.240;2023-05-08T14:25:14;2.87;;;1.30;;
75645;SDS011;64237;52.438;13.240;2023-05-08T14:27:42;3.05;;;1.30;;
75645;SDS011;64237;52.438;13.240;2023-05-08T14:32:36;5.20;;;1.70;;
75645;SDS011;64237;52.438;13.240;2023-05-08T14:35:01;4.25;;;1.30;;
75645;SDS011;64237;52.438;13.240;2023-05-08T14:37:33;5.05;;;1.67;;
75645;SDS011;64237;52.438;13.240;2023-05-08T14:40:01;4.22;;;1.60;;
75645;SDS011;64237;52.438;13.240;2023-05-08T14:42:29;2.35;;;1.40;;
75645;SDS011;64237;52.438;13.240;2023-05-08T14:47:29;4.00;;;1.20;;
75645;SDS011;64237;52.438;13.240;2023-05-08T14:50:02;3.15;;;1.33;;
75645;SDS011;64237;52.438;13.240;2023-05-08T14:52:28;3.10;;;1.30;;
75645;SDS011;64237;52.438;13.240;2023-05-08T14:54:53;1.83;;;1.02;;
75645;SDS011;64237;52.438;13.240;2023-05-08T14:57:19;3.43;;;1.40;;
75645;SDS011;64237;52.438;13.240;2023-05-08T14:59:47;3.67;;;1.60;;
75645;SDS011;64237;52.438;13.240;2023-05-08T15:04:44;3.80;;;1.27;;
75645;SDS011;64237;52.438;13.240;2023-05-08T15:07:10;3.08;;;1.20;;
75645;SDS011;64237;52.438;13.240;2023-05-08T15:09:38;5.07;;;1.30;;
75645;SDS011;64237;52.438;13.240;2023-05-08T15:14:41;4.18;;;1.58;;
75645;SDS011;64237;52.438;13.240;2023-05-08T15:17:06;1.88;;;1.40;;
75645;SDS011;64237;52.438;13.240;2023-05-08T15:19:32;4.13;;;1.57;;
75645;SDS011;64237;52.438;13.240;2023-05-08T15:21:57;3.10;;;1.40;;
75645;SDS011;64237;52.438;13.240;2023-05-08T15:24:22;3.67;;;1.43;;
75645;SDS011;64237;52.438;13.240;2023-05-08T15:26:47;4.37;;;1.30;;
75645;SDS011;64237;52.438;13.240;2023-05-08T15:29:13;6.33;;;1.80;;
75645;SDS011;64237;52.438;13.240;2023-05-08T15:31:47;3.87;;;1.37;;
75645;SDS011;64237;52.438;13.240;2023-05-08T15:34:15;4.35;;;1.70;;
75645;SDS011;64237;52.438;13.240;2023-05-08T15:36:44;2.35;;;1.40;;
75645;SDS011;64237;52.438;13.240;2023-05-08T15:39:09;4.40;;;1.50;;
75645;SDS011;64237;52.438;13.240;2023-05-08T15:41:34;3.92;;;1.40;;
75645;SDS011;64237;52.438;13.240;2023-05-08T15:44:01;5.03;;;1.52;;
75645;SDS011;64237;52.438;13.240;2023-05-08T15:46:26;3.22;;;1.42;;
75645;SDS011;64237;52.438;13.240;2023-05-08T15:48:58;2.97;;;1.60;;
75645;SDS011;64237;52.438;13.240;2023-05-08T15:51:23;3.38;;;1.50;;
75645;SDS011;64237;52.438;13.240;2023-05-08T15:54:03;4.47;;;1.60;;